sensor_id;sensor_type;location;lat;lon;timestamp;pressure;altitude;pressure_sealevel;temperature;humidity
47636;BME280;33364;50.766;15.338;2023-02-10T00:01:19;96393.75;;;-4.22;65.91
47636;BME280;33364;50.766;15.338;2023-02-10T00:03:45;96393.34;;;-4.63;72.71
47636;BME280;33364;50.766;15.338;2023-02-10T00:06:13;96389.25;;;-4.89;65.52
47636;BME280;33364;50.766;15.338;2023-02-10T00:08:39;96397.59;;;-4.62;67.98
47636;BME280;33364;50.766;15.338;2023-02-10T00:11:08;96391.16;;;-4.33;69.08
47636;BME280;33364;50.766;15.338;2023-02-10T00:13:36;96395.81;;;-4.61;61.37
47636;BME280;33364;50.766;15.338;2023-02-10T00:16:04;96393.34;;;-4.63;67.95
47636;BME280;33364;50.766;15.338;2023-02-10T00:18:30;96402.63;;;-4.71;64.49
47636;BME280;33364;50.766;15.338;2023-02-10T00:21:07;96395.00;;;-4.62;65.41
47636;BME280;33364;50.766;15.338;2023-02-10T00:23:33;96389.81;;;-4.97;64.28
47636;BME280;33364;50.766;15.338;2023-02-10T00:26:10;96381.94;;;-4.95;65.32
47636;BME280;33364;50.766;15.338;2023-02-10T00:28:36;96386.84;;;-5.04;67.31
47636;BME280;33364;50.766;15.338;2023-02-10T00:31:06;96384.88;;;-5.00;65.20
47636;BME280;33364;50.766;15.338;2023-02-10T00:33:32;96372.31;;;-4.93;68.04
47636;BME280;33364;50.766;15.338;2023-02-10T00:35:58;96372.03;;;-5.02;64.25
47636;BME280;33364;50.766;15.338;2023-02-10T00:38:24;96367.69;;;-5.25;66.76
47636;BME280;33364;50.766;15.338;2023-02-10T00:40:49;96364.81;;;-5.33;69.62
47636;BME280;33364;50.766;15.338;2023-02-10T00:43:15;96365.47;;;-5.43;66.86
47636;BME280;33364;50.766;15.338;2023-02-10T00:45:41;96373.97;;;-4.81;76.42
47636;BME280;33364;50.766;15.338;2023-02-10T00:48:06;96368.38;;;-4.52;77.38
47636;BME280;33364;50.766;15.338;2023-02-10T00:50:32;96361.88;;;-4.47;70.03
47636;BME280;33364;50.766;15.338;2023-02-10T00:52:58;96361.63;;;-4.55;66.07
47636;BME280;33364;50.766;15.338;2023-02-10T00:55:24;96358.63;;;-4.84;65.54
47636;BME280;33364;50.766;15.338;2023-02-10T00:57:49;96365.59;;;-5.20;67.33
47636;BME280;33364;50.766;15.338;2023-02-10T01:00:15;96359.88;;;-5.37;67.68
47636;BME280;33364;50.766;15.338;2023-02-10T01:02:41;96370.81;;;-5.33;70.25
47636;BME280;33364;50.766;15.338;2023-02-10T01:05:07;96370.94;;;-5.10;68.19
47636;BME280;33364;50.766;15.338;2023-02-10T01:07:32;96366.16;;;-5.52;70.53
47636;BME280;33364;50.766;15.338;2023-02-10T01:09:58;96370.44;;;-5.40;66.05
47636;BME280;33364;50.766;15.338;2023-02-10T01:12:24;96377.50;;;-5.42;74.24
47636;BME280;33364;50.766;15.338;2023-02-10T01:14:49;96375.69;;;-5.53;67.45
47636;BME280;33364;50.766;15.338;2023-02-10T01:17:15;96382.13;;;-5.95;63.07
47636;BME280;33364;50.766;15.338;2023-02-10T01:19:41;96379.47;;;-5.69;68.16
47636;BME280;33364;50.766;15.338;2023-02-10T01:22:07;96374.44;;;-5.47;69.75
47636;BME280;33364;50.766;15.338;2023-02-10T01:24:32;96371.72;;;-5.45;70.65
47636;BME280;33364;50.766;15.338;2023-02-10T01:26:58;96363.63;;;-5.41;70.80
47636;BME280;33364;50.766;15.338;2023-02-10T01:29:24;96364.06;;;-5.47;66.31
47636;BME280;33364;50.766;15.338;2023-02-10T01:31:50;96368.38;;;-5.59;68.46
47636;BME280;33364;50.766;15.338;2023-02-10T01:34:16;96366.06;;;-5.26;69.83
47636;BME280;33364;50.766;15.338;2023-02-10T01:36:41;96363.78;;;-5.31;66.44
47636;BME280;33364;50.766;15.338;2023-02-10T01:39:07;96364.41;;;-5.27;67.02
47636;BME280;33364;50.766;15.338;2023-02-10T01:41:34;96375.00;;;-4.95;68.28
47636;BME280;33364;50.766;15.338;2023-02-10T01:44:04;96372.75;;;-5.24;63.49
47636;BME280;33364;50.766;15.338;2023-02-10T01:46:32;96372.50;;;-5.32;61.80
47636;BME280;33364;50.766;15.338;2023-02-10T01:49:09;96363.78;;;-5.31;68.28
47636;BME280;33364;50.766;15.338;2023-02-10T01:51:52;96368.59;;;-5.38;69.07
47636;BME280;33364;50.766;15.338;2023-02-10T01:54:24;96367.34;;;-5.69;61.32
47636;BME280;33364;50.766;15.338;2023-02-10T01:56:51;96375.69;;;-6.52;64.80
47636;BME280;33364;50.766;15.338;2023-02-10T01:59:19;96372.78;;;-6.09;70.27
47636;BME280;33364;50.766;15.338;2023-02-10T02:01:46;96374.75;;;-6.13;64.62
47636;BME280;33364;50.766;15.338;2023-02-10T02:04:12;96376.19;;;-6.09;68.58
47636;BME280;33364;50.766;15.338;2023-02-10T02:06:38;96365.66;;;-5.94;66.71
47636;BME280;33364;50.766;15.338;2023-02-10T02:09:05;96361.41;;;-5.58;67.92
47636;BME280;33364;50.766;15.338;2023-02-10T02:17:35;96374.16;;;-5.55;69.48
47636;BME280;33364;50.766;15.338;2023-02-10T02:34:17;96360.81;;;-6.61;64.60
47636;BME280;33364;50.766;15.338;2023-02-10T02:36:55;96359.75;;;-6.33;70.48
47636;BME280;33364;50.766;15.338;2023-02-10T02:39:22;96357.22;;;-5.96;67.30
47636;BME280;33364;50.766;15.338;2023-02-10T02:42:15;96359.75;;;-5.59;68.77
47636;BME280;33364;50.766;15.338;2023-02-10T02:44:43;96372.19;;;-5.64;69.96
47636;BME280;33364;50.766;15.338;2023-02-10T02:49:48;96371.66;;;-5.57;67.30
47636;BME280;33364;50.766;15.338;2023-02-10T02:52:28;96371.25;;;-5.26;67.29
47636;BME280;33364;50.766;15.338;2023-02-10T02:55:00;96378.81;;;-5.12;68.98
47636;BME280;33364;50.766;15.338;2023-02-10T02:57:47;96373.34;;;-5.56;67.45
47636;BME280;33364;50.766;15.338;2023-02-10T03:00:19;96363.47;;;-5.50;72.53
47636;BME280;33364;50.766;15.338;2023-02-10T03:02:47;96360.44;;;-5.68;64.88
47636;BME280;33364;50.766;15.338;2023-02-10T03:05:27;96352.19;;;-5.62;66.97
47636;BME280;33364;50.766;15.338;2023-02-10T03:07:55;96362.28;;;-5.46;66.73
47636;BME280;33364;50.766;15.338;2023-02-10T03:10:21;96360.72;;;-5.25;67.89
47636;BME280;33364;50.766;15.338;2023-02-10T03:12:47;96364.38;;;-5.51;66.49
47636;BME280;33364;50.766;15.338;2023-02-10T03:15:13;96368.03;;;-5.30;66.33
47636;BME280;33364;50.766;15.338;2023-02-10T03:17:39;96366.34;;;-5.42;66.88
47636;BME280;33364;50.766;15.338;2023-02-10T03:20:06;96373.69;;;-5.73;62.75
47636;BME280;33364;50.766;15.338;2023-02-10T03:22:32;96369.78;;;-5.55;69.26
47636;BME280;33364;50.766;15.338;2023-02-10T03:24:57;96373.38;;;-5.68;61.43
47636;BME280;33364;50.766;15.338;2023-02-10T03:27:24;96368.50;;;-5.97;64.01
47636;BME280;33364;50.766;15.338;2023-02-10T03:29:49;96369.28;;;-6.59;61.37
47636;BME280;33364;50.766;15.338;2023-02-10T03:32:18;96383.44;;;-6.91;68.86
47636;BME280;33364;50.766;15.338;2023-02-10T03:34:45;96387.09;;;-6.42;70.99
47636;BME280;33364;50.766;15.338;2023-02-10T03:37:11;96388.72;;;-6.15;69.83
47636;BME280;33364;50.766;15.338;2023-02-10T03:39:37;96383.41;;;-5.64;74.10
47636;BME280;33364;50.766;15.338;2023-02-10T03:42:03;96387.53;;;-5.61;67.91
47636;BME280;33364;50.766;15.338;2023-02-10T03:44:29;96380.28;;;-5.69;65.44
47636;BME280;33364;50.766;15.338;2023-02-10T03:46:55;96374.13;;;-6.16;65.26
47636;BME280;33364;50.766;15.338;2023-02-10T03:49:21;96378.88;;;-6.23;67.18
47636;BME280;33364;50.766;15.338;2023-02-10T03:51:47;96385.63;;;-6.20;65.33
47636;BME280;33364;50.766;15.338;2023-02-10T03:54:12;96397.19;;;-6.26;65.17
47636;BME280;33364;50.766;15.338;2023-02-10T03:56:38;96392.66;;;-6.10;69.33
47636;BME280;33364;50.766;15.338;2023-02-10T03:59:04;96388.84;;;-5.93;67.80
47636;BME280;33364;50.766;15.338;2023-02-10T04:01:31;96389.94;;;-5.71;68.91
47636;BME280;33364;50.766;15.338;2023-02-10T04:03:57;96390.91;;;-6.22;66.89
47636;BME280;33364;50.766;15.338;2023-02-10T04:06:23;96396.88;;;-6.09;66.30
47636;BME280;33364;50.766;15.338;2023-02-10T04:08:48;96394.09;;;-6.05;66.44
47636;BME280;33364;50.766;15.338;2023-02-10T04:11:14;96394.50;;;-6.12;67.18
47636;BME280;33364;50.766;15.338;2023-02-10T04:13:40;96395.16;;;-6.08;67.21
47636;BME280;33364;50.766;15.338;2023-02-10T04:16:09;96396.28;;;-6.12;68.75
47636;BME280;33364;50.766;15.338;2023-02-10T04:18:35;96396.56;;;-6.04;63.83
47636;BME280;33364;50.766;15.338;2023-02-10T04:21:02;96388.81;;;-5.67;71.60
47636;BME280;33364;50.766;15.338;2023-02-10T04:23:29;96390.78;;;-6.07;61.44
47636;BME280;33364;50.766;15.338;2023-02-10T04:25:55;96398.66;;;-6.35;67.14
47636;BME280;33364;50.766;15.338;2023-02-10T04:28:21;96393.06;;;-6.29;72.21
47636;BME280;33364;50.766;15.338;2023-02-10T04:30:51;96393.78;;;-6.14;68.23
47636;BME280;33364;50.766;15.338;2023-02-10T04:33:17;96398.03;;;-6.00;65.58
47636;BME280;33364;50.766;15.338;2023-02-10T04:35:43;96400.50;;;-6.75;62.27
47636;BME280;33364;50.766;15.338;2023-02-10T04:38:10;96403.03;;;-7.14;62.51
47636;BME280;33364;50.766;15.338;2023-02-10T04:40:36;96406.72;;;-7.18;64.34
47636;BME280;33364;50.766;15.338;2023-02-10T04:43:01;96396.63;;;-7.48;67.32
47636;BME280;33364;50.766;15.338;2023-02-10T04:45:27;96396.25;;;-7.29;64.92
47636;BME280;33364;50.766;15.338;2023-02-10T04:47:53;96400.38;;;-7.81;64.30
47636;BME280;33364;50.766;15.338;2023-02-10T04:50:19;96402.34;;;-7.99;64.71
47636;BME280;33364;50.766;15.338;2023-02-10T04:52:44;96408.38;;;-7.71;71.73
47636;BME280;33364;50.766;15.338;2023-02-10T04:55:10;96412.03;;;-7.07;73.21
47636;BME280;33364;50.766;15.338;2023-02-10T04:57:36;96411.25;;;-7.49;61.99
47636;BME280;33364;50.766;15.338;2023-02-10T05:00:03;96417.63;;;-7.96;67.34
47636;BME280;33364;50.766;15.338;2023-02-10T05:02:29;96416.88;;;-7.84;67.70
47636;BME280;33364;50.766;15.338;2023-02-10T05:04:55;96416.44;;;-7.22;71.73
47636;BME280;33364;50.766;15.338;2023-02-10T05:07:20;96420.09;;;-6.98;68.49
47636;BME280;33364;50.766;15.338;2023-02-10T05:09:46;96419.19;;;-6.97;68.84
47636;BME280;33364;50.766;15.338;2023-02-10T05:12:11;96422.03;;;-6.75;68.56
47636;BME280;33364;50.766;15.338;2023-02-10T05:14:37;96422.97;;;-6.63;65.70
47636;BME280;33364;50.766;15.338;2023-02-10T05:17:03;96437.88;;;-6.41;68.77
47636;BME280;33364;50.766;15.338;2023-02-10T05:19:29;96427.72;;;-6.31;70.65
47636;BME280;33364;50.766;15.338;2023-02-10T05:21:55;96424.53;;;-6.48;70.79
47636;BME280;33364;50.766;15.338;2023-02-10T05:24:21;96427.31;;;-6.38;69.28
47636;BME280;33364;50.766;15.338;2023-02-10T05:26:46;96420.81;;;-6.43;62.10
47636;BME280;33364;50.766;15.338;2023-02-10T05:29:12;96418.47;;;-6.87;62.08
47636;BME280;33364;50.766;15.338;2023-02-10T05:31:38;96413.72;;;-6.80;67.40
47636;BME280;33364;50.766;15.338;2023-02-10T05:34:04;96425.63;;;-6.77;68.80
47636;BME280;33364;50.766;15.338;2023-02-10T05:36:29;96426.84;;;-6.96;65.30
47636;BME280;33364;50.766;15.338;2023-02-10T05:38:55;96429.22;;;-6.80;67.65
47636;BME280;33364;50.766;15.338;2023-02-10T05:41:39;96438.38;;;-6.61;67.41
47636;BME280;33364;50.766;15.338;2023-02-10T05:44:05;96450.50;;;-6.23;69.08
47636;BME280;33364;50.766;15.338;2023-02-10T05:46:31;96459.75;;;-5.82;72.57
47636;BME280;33364;50.766;15.338;2023-02-10T05:48:57;96464.03;;;-6.20;61.70
47636;BME280;33364;50.766;15.338;2023-02-10T05:51:22;96462.34;;;-6.72;65.18
47636;BME280;33364;50.766;15.338;2023-02-10T05:53:48;96459.91;;;-6.48;67.42
47636;BME280;33364;50.766;15.338;2023-02-10T05:56:14;96455.56;;;-6.09;69.72
47636;BME280;33364;50.766;15.338;2023-02-10T05:58:40;96455.69;;;-5.98;68.79
47636;BME280;33364;50.766;15.338;2023-02-10T06:01:07;96462.31;;;-6.19;66.39
47636;BME280;33364;50.766;15.338;2023-02-10T06:03:33;96459.28;;;-6.13;65.37
47636;BME280;33364;50.766;15.338;2023-02-10T06:05:59;96458.25;;;-6.11;66.02
47636;BME280;33364;50.766;15.338;2023-02-10T06:08:25;96463.19;;;-6.59;64.51
47636;BME280;33364;50.766;15.338;2023-02-10T06:10:52;96469.44;;;-6.49;70.21
47636;BME280;33364;50.766;15.338;2023-02-10T06:13:18;96468.41;;;-6.33;68.37
47636;BME280;33364;50.766;15.338;2023-02-10T06:15:43;96471.91;;;-6.21;67.81
47636;BME280;33364;50.766;15.338;2023-02-10T06:18:09;96470.88;;;-6.32;67.67
47636;BME280;33364;50.766;15.338;2023-02-10T06:20:35;96470.28;;;-6.10;68.14
47636;BME280;33364;50.766;15.338;2023-02-10T06:23:00;96466.94;;;-5.99;67.38
47636;BME280;33364;50.766;15.338;2023-02-10T06:25:26;96461.97;;;-6.02;70.31
47636;BME280;33364;50.766;15.338;2023-02-10T06:27:52;96463.78;;;-5.65;72.72
47636;BME280;33364;50.766;15.338;2023-02-10T06:30:18;96463.84;;;-5.17;71.38
47636;BME280;33364;50.766;15.338;2023-02-10T06:32:44;96473.22;;;-5.03;68.99
47636;BME280;33364;50.766;15.338;2023-02-10T06:35:09;96469.34;;;-4.98;67.56
47636;BME280;33364;50.766;15.338;2023-02-10T06:37:35;96479.91;;;-4.88;67.95
47636;BME280;33364;50.766;15.338;2023-02-10T06:40:05;96470.69;;;-4.92;67.96
47636;BME280;33364;50.766;15.338;2023-02-10T06:42:32;96486.00;;;-4.89;68.75
47636;BME280;33364;50.766;15.338;2023-02-10T06:44:57;96488.22;;;-4.95;67.24
47636;BME280;33364;50.766;15.338;2023-02-10T06:47:23;96487.78;;;-4.89;72.16
47636;BME280;33364;50.766;15.338;2023-02-10T06:49:49;96483.19;;;-4.86;67.29
47636;BME280;33364;50.766;15.338;2023-02-10T06:52:15;96483.59;;;-5.03;66.18
47636;BME280;33364;50.766;15.338;2023-02-10T06:54:40;96492.41;;;-5.06;67.79
47636;BME280;33364;50.766;15.338;2023-02-10T06:57:07;96487.22;;;-5.06;67.76
47636;BME280;33364;50.766;15.338;2023-02-10T06:59:33;96489.06;;;-4.95;73.11
47636;BME280;33364;50.766;15.338;2023-02-10T07:01:59;96498.25;;;-4.91;64.78
47636;BME280;33364;50.766;15.338;2023-02-10T07:04:29;96485.91;;;-4.87;66.80
47636;BME280;33364;50.766;15.338;2023-02-10T07:06:56;96489.78;;;-4.69;68.49
47636;BME280;33364;50.766;15.338;2023-02-10T07:09:21;96487.19;;;-4.69;67.89
47636;BME280;33364;50.766;15.338;2023-02-10T07:11:47;96491.63;;;-4.71;66.32
47636;BME280;33364;50.766;15.338;2023-02-10T07:14:13;96491.94;;;-4.51;66.95
47636;BME280;33364;50.766;15.338;2023-02-10T07:16:39;96500.81;;;-4.43;67.83
47636;BME280;33364;50.766;15.338;2023-02-10T07:19:05;96503.53;;;-4.44;67.17
47636;BME280;33364;50.766;15.338;2023-02-10T07:21:31;96513.06;;;-4.56;65.47
47636;BME280;33364;50.766;15.338;2023-02-10T07:23:57;96515.97;;;-4.61;65.76
47636;BME280;33364;50.766;15.338;2023-02-10T07:26:23;96519.97;;;-4.56;64.64
47636;BME280;33364;50.766;15.338;2023-02-10T07:28:49;96526.22;;;-4.24;69.76
47636;BME280;33364;50.766;15.338;2023-02-10T07:31:15;96520.56;;;-4.29;67.21
47636;BME280;33364;50.766;15.338;2023-02-10T07:33:40;96521.28;;;-4.15;68.42
47636;BME280;33364;50.766;15.338;2023-02-10T07:36:07;96522.97;;;-4.14;67.26
47636;BME280;33364;50.766;15.338;2023-02-10T07:38:33;96521.22;;;-4.02;68.34
47636;BME280;33364;50.766;15.338;2023-02-10T07:41:00;96521.13;;;-3.90;68.98
47636;BME280;33364;50.766;15.338;2023-02-10T07:43:25;96528.19;;;-4.03;65.08
47636;BME280;33364;50.766;15.338;2023-02-10T07:45:51;96525.81;;;-4.06;66.13
47636;BME280;33364;50.766;15.338;2023-02-10T07:48:17;96528.31;;;-3.93;66.45
47636;BME280;33364;50.766;15.338;2023-02-10T07:50:44;96537.44;;;-3.65;68.35
47636;BME280;33364;50.766;15.338;2023-02-10T07:53:11;96545.69;;;-3.60;67.61
47636;BME280;33364;50.766;15.338;2023-02-10T07:55:37;96536.97;;;-3.59;67.22
47636;BME280;33364;50.766;15.338;2023-02-10T07:58:06;96538.13;;;-3.63;63.25
47636;BME280;33364;50.766;15.338;2023-02-10T08:00:33;96537.91;;;-3.82;65.55
47636;BME280;33364;50.766;15.338;2023-02-10T08:02:59;96528.00;;;-3.77;67.40
47636;BME280;33364;50.766;15.338;2023-02-10T08:05:25;96528.81;;;-3.77;68.00
47636;BME280;33364;50.766;15.338;2023-02-10T08:07:51;96527.38;;;-3.92;65.25
47636;BME280;33364;50.766;15.338;2023-02-10T08:10:19;96532.84;;;-3.73;63.01
47636;BME280;33364;50.766;15.338;2023-02-10T08:12:44;96532.25;;;-3.65;64.26
47636;BME280;33364;50.766;15.338;2023-02-10T08:15:12;96544.28;;;-3.75;64.14
47636;BME280;33364;50.766;15.338;2023-02-10T08:17:38;96542.28;;;-3.72;64.51
47636;BME280;33364;50.766;15.338;2023-02-10T08:20:05;96539.78;;;-3.73;64.44
47636;BME280;33364;50.766;15.338;2023-02-10T08:22:31;96546.44;;;-3.46;67.10
47636;BME280;33364;50.766;15.338;2023-02-10T08:24:59;96538.63;;;-3.35;63.69
47636;BME280;33364;50.766;15.338;2023-02-10T08:27:24;96545.59;;;-3.13;65.42
47636;BME280;33364;50.766;15.338;2023-02-10T08:29:50;96550.78;;;-3.13;68.00
47636;BME280;33364;50.766;15.338;2023-02-10T08:32:16;96538.63;;;-3.24;64.02
47636;BME280;33364;50.766;15.338;2023-02-10T08:34:46;96547.84;;;-3.08;62.95
47636;BME280;33364;50.766;15.338;2023-02-10T08:37:12;96544.88;;;-3.04;63.74
47636;BME280;33364;50.766;15.338;2023-02-10T08:39:38;96551.72;;;-3.03;62.54
47636;BME280;33364;50.766;15.338;2023-02-10T08:42:04;96552.53;;;-2.91;66.87
47636;BME280;33364;50.766;15.338;2023-02-10T08:44:30;96547.59;;;-2.94;62.68
47636;BME280;33364;50.766;15.338;2023-02-10T08:46:55;96543.75;;;-2.79;63.55
47636;BME280;33364;50.766;15.338;2023-02-10T08:49:21;96534.53;;;-2.18;69.80
47636;BME280;33364;50.766;15.338;2023-02-10T08:51:50;96528.09;;;-2.03;64.80
47636;BME280;33364;50.766;15.338;2023-02-10T08:54:17;96531.19;;;-2.09;62.33
47636;BME280;33364;50.766;15.338;2023-02-10T08:56:42;96526.03;;;-2.20;62.67
47636;BME280;33364;50.766;15.338;2023-02-10T08:59:08;96533.59;;;-2.17;63.92
47636;BME280;33364;50.766;15.338;2023-02-10T09:01:34;96534.91;;;-2.23;62.40
47636;BME280;33364;50.766;15.338;2023-02-10T09:04:00;96541.09;;;-2.24;65.57
47636;BME280;33364;50.766;15.338;2023-02-10T09:06:30;96541.63;;;-2.09;66.15
47636;BME280;33364;50.766;15.338;2023-02-10T09:08:58;96544.81;;;-2.37;62.88
47636;BME280;33364;50.766;15.338;2023-02-10T09:11:25;96544.69;;;-2.36;62.88
47636;BME280;33364;50.766;15.338;2023-02-10T09:13:52;96540.69;;;-2.40;60.62
47636;BME280;33364;50.766;15.338;2023-02-10T09:16:18;96533.91;;;-2.64;61.20
47636;BME280;33364;50.766;15.338;2023-02-10T09:18:45;96544.59;;;-2.46;62.06
47636;BME280;33364;50.766;15.338;2023-02-10T09:21:10;96544.31;;;-2.31;60.81
47636;BME280;33364;50.766;15.338;2023-02-10T09:23:36;96550.50;;;-2.44;63.27
47636;BME280;33364;50.766;15.338;2023-02-10T09:26:02;96559.72;;;-2.40;61.66
47636;BME280;33364;50.766;15.338;2023-02-10T09:28:28;96558.94;;;-2.19;61.34
47636;BME280;33364;50.766;15.338;2023-02-10T09:30:54;96565.50;;;-2.04;63.50
47636;BME280;33364;50.766;15.338;2023-02-10T09:33:20;96566.88;;;-2.20;62.01
47636;BME280;33364;50.766;15.338;2023-02-10T09:35:46;96565.06;;;-2.09;58.94
47636;BME280;33364;50.766;15.338;2023-02-10T09:38:12;96571.16;;;-1.98;60.06
47636;BME280;33364;50.766;15.338;2023-02-10T09:46:16;96576.22;;;-1.34;62.32
47636;BME280;33364;50.766;15.338;2023-02-10T09:51:51;96569.06;;;-1.32;58.16
47636;BME280;33364;50.766;15.338;2023-02-10T09:54:22;96577.59;;;-1.30;60.47
47636;BME280;33364;50.766;15.338;2023-02-10T09:56:48;96579.25;;;-1.28;57.08
47636;BME280;33364;50.766;15.338;2023-02-10T09:59:17;96574.63;;;-1.15;57.51
47636;BME280;33364;50.766;15.338;2023-02-10T10:01:51;96581.84;;;-0.98;57.35
47636;BME280;33364;50.766;15.338;2023-02-10T10:04:21;96573.34;;;-0.90;56.52
47636;BME280;33364;50.766;15.338;2023-02-10T10:06:55;96582.06;;;-0.70;59.84
47636;BME280;33364;50.766;15.338;2023-02-10T10:09:45;96585.31;;;-0.27;55.04
47636;BME280;33364;50.766;15.338;2023-02-10T10:12:16;96583.78;;;-0.30;57.91
47636;BME280;33364;50.766;15.338;2023-02-10T10:14:43;96583.50;;;-0.27;55.45
47636;BME280;33364;50.766;15.338;2023-02-10T10:19:52;96583.91;;;-0.31;54.88
47636;BME280;33364;50.766;15.338;2023-02-10T10:27:58;96583.91;;;-0.12;56.46
47636;BME280;33364;50.766;15.338;2023-02-10T10:33:53;96588.31;;;-0.32;56.96
47636;BME280;33364;50.766;15.338;2023-02-10T10:35:53;96570.84;;;-0.41;54.50
47636;BME280;33364;50.766;15.338;2023-02-10T10:38:27;96572.78;;;-0.24;59.51
47636;BME280;33364;50.766;15.338;2023-02-10T10:41:07;96571.00;;;-0.04;57.67
47636;BME280;33364;50.766;15.338;2023-02-10T10:43:46;96563.72;;;-0.10;55.81
47636;BME280;33364;50.766;15.338;2023-02-10T10:48:50;96572.34;;;0.30;55.59
47636;BME280;33364;50.766;15.338;2023-02-10T10:51:18;96562.78;;;0.58;56.71
47636;BME280;33364;50.766;15.338;2023-02-10T10:53:51;96565.59;;;0.84;53.85
47636;BME280;33364;50.766;15.338;2023-02-10T10:59:34;96564.38;;;2.60;52.07
47636;BME280;33364;50.766;15.338;2023-02-10T11:02:18;96544.16;;;3.29;52.28
47636;BME280;33364;50.766;15.338;2023-02-10T11:04:45;96552.53;;;3.25;53.65
47636;BME280;33364;50.766;15.338;2023-02-10T11:07:18;96544.06;;;3.47;53.07
47636;BME280;33364;50.766;15.338;2023-02-10T11:09:51;96554.81;;;3.20;53.17
47636;BME280;33364;50.766;15.338;2023-02-10T11:12:37;96566.81;;;3.22;50.80
47636;BME280;33364;50.766;15.338;2023-02-10T11:15:39;96561.34;;;3.07;51.83
47636;BME280;33364;50.766;15.338;2023-02-10T11:18:18;96555.97;;;3.93;54.39
47636;BME280;33364;50.766;15.338;2023-02-10T11:21:15;96559.53;;;3.59;53.06
47636;BME280;33364;50.766;15.338;2023-02-10T11:23:47;96562.59;;;3.46;53.29
47636;BME280;33364;50.766;15.338;2023-02-10T11:26:32;96563.41;;;3.38;54.33
47636;BME280;33364;50.766;15.338;2023-02-10T11:29:09;96560.63;;;3.40;53.86
47636;BME280;33364;50.766;15.338;2023-02-10T11:31:45;96567.66;;;3.31;55.84
47636;BME280;33364;50.766;15.338;2023-02-10T11:34:46;96569.53;;;3.04;54.44
47636;BME280;33364;50.766;15.338;2023-02-10T11:37:38;96571.56;;;3.27;53.01
47636;BME280;33364;50.766;15.338;2023-02-10T11:40:23;96571.31;;;3.46;55.60
47636;BME280;33364;50.766;15.338;2023-02-10T11:42:53;96575.25;;;3.42;55.42
47636;BME280;33364;50.766;15.338;2023-02-10T11:45:30;96568.69;;;3.46;55.61
47636;BME280;33364;50.766;15.338;2023-02-10T11:48:16;96571.63;;;3.01;52.81
47636;BME280;33364;50.766;15.338;2023-02-10T11:50:43;96576.78;;;2.58;53.36
47636;BME280;33364;50.766;15.338;2023-02-10T11:53:26;96564.56;;;2.67;53.86
47636;BME280;33364;50.766;15.338;2023-02-10T11:58:54;96560.38;;;2.56;57.72
47636;BME280;33364;50.766;15.338;2023-02-10T12:01:57;96547.88;;;2.50;54.51
47636;BME280;33364;50.766;15.338;2023-02-10T12:04:36;96549.78;;;2.39;56.30
47636;BME280;33364;50.766;15.338;2023-02-10T12:07:10;96551.59;;;2.39;57.10
47636;BME280;33364;50.766;15.338;2023-02-10T12:09:48;96546.66;;;2.36;57.94
47636;BME280;33364;50.766;15.338;2023-02-10T12:12:40;96542.22;;;2.63;59.21
47636;BME280;33364;50.766;15.338;2023-02-10T12:15:27;96541.75;;;2.67;54.51
47636;BME280;33364;50.766;15.338;2023-02-10T12:18:22;96543.78;;;2.73;54.38
47636;BME280;33364;50.766;15.338;2023-02-10T12:26:54;96546.13;;;2.32;55.52
47636;BME280;33364;50.766;15.338;2023-02-10T12:32:13;96536.97;;;2.36;55.95
47636;BME280;33364;50.766;15.338;2023-02-10T12:52:04;96530.94;;;2.18;55.89
47636;BME280;33364;50.766;15.338;2023-02-10T12:54:53;96537.34;;;1.97;57.58
47636;BME280;33364;50.766;15.338;2023-02-10T12:57:28;96539.75;;;2.35;59.30
47636;BME280;33364;50.766;15.338;2023-02-10T13:00:02;96543.66;;;2.31;58.20
47636;BME280;33364;50.766;15.338;2023-02-10T13:03:01;96537.44;;;2.32;59.56
47636;BME280;33364;50.766;15.338;2023-02-10T13:06:16;96541.84;;;1.87;56.92
47636;BME280;33364;50.766;15.338;2023-02-10T13:08:51;96547.22;;;1.68;59.24
47636;BME280;33364;50.766;15.338;2023-02-10T13:11:31;96537.63;;;1.58;57.94
47636;BME280;33364;50.766;15.338;2023-02-10T13:13:59;96545.81;;;1.27;60.08
47636;BME280;33364;50.766;15.338;2023-02-10T13:16:32;96548.66;;;1.16;61.13
47636;BME280;33364;50.766;15.338;2023-02-10T13:19:31;96546.31;;;0.85;62.91
47636;BME280;33364;50.766;15.338;2023-02-10T13:24:39;96548.56;;;1.36;60.54
47636;BME280;33364;50.766;15.338;2023-02-10T13:29:58;96546.88;;;0.79;63.46
47636;BME280;33364;50.766;15.338;2023-02-10T13:32:49;96552.88;;;0.62;65.92
47636;BME280;33364;50.766;15.338;2023-02-10T13:35:22;96549.44;;;0.61;62.32
47636;BME280;33364;50.766;15.338;2023-02-10T13:37:54;96549.13;;;0.74;63.88
47636;BME280;33364;50.766;15.338;2023-02-10T13:40:24;96554.84;;;0.50;62.00
47636;BME280;33364;50.766;15.338;2023-02-10T13:45:26;96563.66;;;0.39;63.61
47636;BME280;33364;50.766;15.338;2023-02-10T13:48:34;96568.22;;;0.27;64.82
47636;BME280;33364;50.766;15.338;2023-02-10T13:50:47;96562.84;;;0.29;65.37
47636;BME280;33364;50.766;15.338;2023-02-10T14:04:27;96572.06;;;0.43;65.05
47636;BME280;33364;50.766;15.338;2023-02-10T14:06:54;96566.16;;;0.21;65.38
47636;BME280;33364;50.766;15.338;2023-02-10T14:11:59;96564.94;;;-0.33;65.78
47636;BME280;33364;50.766;15.338;2023-02-10T14:14:45;96579.25;;;-0.18;67.36
47636;BME280;33364;50.766;15.338;2023-02-10T14:19:44;96575.13;;;-0.21;69.96
47636;BME280;33364;50.766;15.338;2023-02-10T14:24:52;96565.34;;;-0.38;70.79
47636;BME280;33364;50.766;15.338;2023-02-10T14:27:21;96569.22;;;-0.23;69.32
47636;BME280;33364;50.766;15.338;2023-02-10T14:29:58;96576.91;;;-0.41;67.41
47636;BME280;33364;50.766;15.338;2023-02-10T14:32:29;96580.88;;;-0.37;67.97
47636;BME280;33364;50.766;15.338;2023-02-10T14:35:01;96579.50;;;-0.50;68.00
47636;BME280;33364;50.766;15.338;2023-02-10T14:37:30;96572.09;;;-0.35;70.91
47636;BME280;33364;50.766;15.338;2023-02-10T14:39:57;96587.25;;;-0.20;68.19
47636;BME280;33364;50.766;15.338;2023-02-10T14:42:26;96578.28;;;-0.27;68.55
47636;BME280;33364;50.766;15.338;2023-02-10T14:44:55;96584.91;;;-0.13;68.63
47636;BME280;33364;50.766;15.338;2023-02-10T14:47:43;96574.31;;;-0.02;68.68
47636;BME280;33364;50.766;15.338;2023-02-10T14:52:49;96578.97;;;-0.25;69.57